sensor_id;sensor_type;location;lat;lon;timestamp;temperature;humidity
32698;DHT22;19087;51.062;3.754;2023-02-28T00:01:08;3.60;99.90
32698;DHT22;19087;51.062;3.754;2023-02-28T00:03:34;3.60;99.90
32698;DHT22;19087;51.062;3.754;2023-02-28T00:06:02;3.50;99.90
32698;DHT22;19087;51.062;3.754;2023-02-28T00:08:28;3.40;99.90
32698;DHT22;19087;51.062;3.754;2023-02-28T00:10:54;3.50;99.90
32698;DHT22;19087;51.062;3.754;2023-02-28T00:13:20;3.60;99.90
32698;DHT22;19087;51.062;3.754;2023-02-28T00:15:45;3.60;99.90
32698;DHT22;19087;51.062;3.754;2023-02-28T00:18:11;3.70;99.90
32698;DHT22;19087;51.062;3.754;2023-02-28T00:20:38;3.50;99.90
32698;DHT22;19087;51.062;3.754;2023-02-28T00:23:03;3.40;99.90
32698;DHT22;19087;51.062;3.754;2023-02-28T00:25:29;3.40;99.90
32698;DHT22;19087;51.062;3.754;2023-02-28T00:27:55;3.40;99.90
32698;DHT22;19087;51.062;3.754;2023-02-28T00:30:23;3.40;99.90
32698;DHT22;19087;51.062;3.754;2023-02-28T00:32:50;3.40;99.90
32698;DHT22;19087;51.062;3.754;2023-02-28T00:35:16;3.40;99.90
32698;DHT22;19087;51.062;3.754;2023-02-28T00:37:42;3.40;99.90
32698;DHT22;19087;51.062;3.754;2023-02-28T00:40:09;3.40;99.90
32698;DHT22;19087;51.062;3.754;2023-02-28T00:42:37;3.30;99.90
32698;DHT22;19087;51.062;3.754;2023-02-28T00:45:03;3.30;99.90
32698;DHT22;19087;51.062;3.754;2023-02-28T00:47:33;3.30;99.90
32698;DHT22;19087;51.062;3.754;2023-02-28T00:49:59;3.30;99.90
32698;DHT22;19087;51.062;3.754;2023-02-28T00:52:24;3.40;99.90
32698;DHT22;19087;51.062;3.754;2023-02-28T00:54:50;3.50;99.90
32698;DHT22;19087;51.062;3.754;2023-02-28T00:57:16;3.50;99.90
32698;DHT22;19087;51.062;3.754;2023-02-28T00:59:41;3.40;99.90
32698;DHT22;19087;51.062;3.754;2023-02-28T01:02:08;3.50;99.90
32698;DHT22;19087;51.062;3.754;2023-02-28T01:04:35;3.50;99.90
32698;DHT22;19087;51.062;3.754;2023-02-28T01:07:00;3.30;99.90
32698;DHT22;19087;51.062;3.754;2023-02-28T01:09:26;3.30;99.90
32698;DHT22;19087;51.062;3.754;2023-02-28T01:11:52;3.20;99.90
32698;DHT22;19087;51.062;3.754;2023-02-28T01:14:18;3.10;99.90
32698;DHT22;19087;51.062;3.754;2023-02-28T01:16:44;3.10;99.90
32698;DHT22;19087;51.062;3.754;2023-02-28T01:19:09;3.30;99.90
32698;DHT22;19087;51.062;3.754;2023-02-28T01:21:36;3.30;99.90
32698;DHT22;19087;51.062;3.754;2023-02-28T01:24:03;3.40;99.90
32698;DHT22;19087;51.062;3.754;2023-02-28T01:26:30;3.50;99.90
32698;DHT22;19087;51.062;3.754;2023-02-28T01:28:55;3.40;99.90
32698;DHT22;19087;51.062;3.754;2023-02-28T01:31:22;3.50;99.90
32698;DHT22;19087;51.062;3.754;2023-02-28T01:33:48;3.50;99.90
32698;DHT22;19087;51.062;3.754;2023-02-28T01:36:16;3.30;99.90
32698;DHT22;19087;51.062;3.754;2023-02-28T01:38:42;3.30;99.90
32698;DHT22;19087;51.062;3.754;2023-02-28T01:41:17;3.30;99.90
32698;DHT22;19087;51.062;3.754;2023-02-28T01:46:10;3.30;99.90
32698;DHT22;19087;51.062;3.754;2023-02-28T01:48:46;3.20;99.90
32698;DHT22;19087;51.062;3.754;2023-02-28T01:51:22;3.20;99.90
32698;DHT22;19087;51.062;3.754;2023-02-28T01:53:52;3.20;99.90
32698;DHT22;19087;51.062;3.754;2023-02-28T01:56:26;3.10;99.90
32698;DHT22;19087;51.062;3.754;2023-02-28T01:58:55;2.90;99.90
32698;DHT22;19087;51.062;3.754;2023-02-28T02:01:22;2.90;99.90
32698;DHT22;19087;51.062;3.754;2023-02-28T02:03:54;2.90;99.90
32698;DHT22;19087;51.062;3.754;2023-02-28T02:06:40;2.90;99.90
32698;DHT22;19087;51.062;3.754;2023-02-28T02:09:07;3.00;99.90
32698;DHT22;19087;51.062;3.754;2023-02-28T02:11:33;2.90;99.90
32698;DHT22;19087;51.062;3.754;2023-02-28T02:16:52;2.90;99.90
32698;DHT22;19087;51.062;3.754;2023-02-28T02:19:32;2.80;99.90
32698;DHT22;19087;51.062;3.754;2023-02-28T02:22:29;2.60;99.90
32698;DHT22;19087;51.062;3.754;2023-02-28T02:34:05;2.70;99.90
32698;DHT22;19087;51.062;3.754;2023-02-28T02:36:39;2.90;99.90
32698;DHT22;19087;51.062;3.754;2023-02-28T02:39:18;2.90;99.90
32698;DHT22;19087;51.062;3.754;2023-02-28T02:41:54;2.90;99.90
32698;DHT22;19087;51.062;3.754;2023-02-28T02:44:28;2.80;99.90
32698;DHT22;19087;51.062;3.754;2023-02-28T02:47:01;2.70;99.90
32698;DHT22;19087;51.062;3.754;2023-02-28T02:49:32;2.50;99.90
32698;DHT22;19087;51.062;3.754;2023-02-28T02:52:04;2.60;99.90
32698;DHT22;19087;51.062;3.754;2023-02-28T02:54:34;2.60;99.90
32698;DHT22;19087;51.062;3.754;2023-02-28T02:57:08;2.80;99.90
32698;DHT22;19087;51.062;3.754;2023-02-28T02:59:37;2.60;99.90
32698;DHT22;19087;51.062;3.754;2023-02-28T03:02:06;2.50;99.90
32698;DHT22;19087;51.062;3.754;2023-02-28T03:04:40;2.50;99.90
32698;DHT22;19087;51.062;3.754;2023-02-28T03:07:07;2.50;99.90
32698;DHT22;19087;51.062;3.754;2023-02-28T03:09:35;2.50;99.90
32698;DHT22;19087;51.062;3.754;2023-02-28T03:12:09;2.50;99.90
32698;DHT22;19087;51.062;3.754;2023-02-28T03:17:35;2.40;99.90
32698;DHT22;19087;51.062;3.754;2023-02-28T03:20:38;2.30;99.90
32698;DHT22;19087;51.062;3.754;2023-02-28T03:23:38;2.40;99.90
32698;DHT22;19087;51.062;3.754;2023-02-28T03:26:17;2.30;99.90
32698;DHT22;19087;51.062;3.754;2023-02-28T03:29:05;2.20;99.90
32698;DHT22;19087;51.062;3.754;2023-02-28T03:31:38;2.40;99.90
32698;DHT22;19087;51.062;3.754;2023-02-28T03:36:41;2.70;99.90
32698;DHT22;19087;51.062;3.754;2023-02-28T03:39:21;2.80;99.90
32698;DHT22;19087;51.062;3.754;2023-02-28T03:41:58;2.80;99.90
32698;DHT22;19087;51.062;3.754;2023-02-28T03:44:29;2.90;99.90
32698;DHT22;19087;51.062;3.754;2023-02-28T03:47:24;2.90;99.90
32698;DHT22;19087;51.062;3.754;2023-02-28T03:49:57;2.90;99.90
32698;DHT22;19087;51.062;3.754;2023-02-28T03:52:28;2.70;99.90
32698;DHT22;19087;51.062;3.754;2023-02-28T03:55:00;2.80;99.90
32698;DHT22;19087;51.062;3.754;2023-02-28T04:00:30;3.10;99.90
32698;DHT22;19087;51.062;3.754;2023-02-28T04:02:58;3.30;99.90
32698;DHT22;19087;51.062;3.754;2023-02-28T04:05:24;3.50;99.90
32698;DHT22;19087;51.062;3.754;2023-02-28T04:07:50;3.50;99.90
32698;DHT22;19087;51.062;3.754;2023-02-28T04:10:16;3.50;99.90
32698;DHT22;19087;51.062;3.754;2023-02-28T04:12:43;3.40;99.90
32698;DHT22;19087;51.062;3.754;2023-02-28T04:15:09;3.60;99.90
32698;DHT22;19087;51.062;3.754;2023-02-28T04:17:37;3.60;99.90
32698;DHT22;19087;51.062;3.754;2023-02-28T04:20:03;3.70;99.90
32698;DHT22;19087;51.062;3.754;2023-02-28T04:22:36;3.70;99.90
32698;DHT22;19087;51.062;3.754;2023-02-28T04:25:03;3.80;99.90
32698;DHT22;19087;51.062;3.754;2023-02-28T04:27:28;3.80;99.90
32698;DHT22;19087;51.062;3.754;2023-02-28T04:29:54;3.90;99.90
32698;DHT22;19087;51.062;3.754;2023-02-28T04:32:20;4.00;99.90
32698;DHT22;19087;51.062;3.754;2023-02-28T04:34:46;3.80;99.90
32698;DHT22;19087;51.062;3.754;2023-02-28T04:37:11;3.90;99.90
32698;DHT22;19087;51.062;3.754;2023-02-28T04:39:37;4.20;99.90
32698;DHT22;19087;51.062;3.754;2023-02-28T04:42:03;4.20;99.90
32698;DHT22;19087;51.062;3.754;2023-02-28T04:44:29;4.30;99.90
32698;DHT22;19087;51.062;3.754;2023-02-28T04:46:55;4.30;99.90
32698;DHT22;19087;51.062;3.754;2023-02-28T04:49:20;4.40;99.90
32698;DHT22;19087;51.062;3.754;2023-02-28T04:51:49;4.20;99.90
32698;DHT22;19087;51.062;3.754;2023-02-28T04:54:16;4.20;99.90
32698;DHT22;19087;51.062;3.754;2023-02-28T04:56:50;4.30;99.90
32698;DHT22;19087;51.062;3.754;2023-02-28T04:59:24;4.40;99.90
32698;DHT22;19087;51.062;3.754;2023-02-28T05:01:50;4.50;99.90
32698;DHT22;19087;51.062;3.754;2023-02-28T05:04:18;4.40;99.90
32698;DHT22;19087;51.062;3.754;2023-02-28T05:06:45;4.30;99.90
32698;DHT22;19087;51.062;3.754;2023-02-28T05:09:12;4.40;99.90
32698;DHT22;19087;51.062;3.754;2023-02-28T05:11:39;4.30;99.90
32698;DHT22;19087;51.062;3.754;2023-02-28T05:14:14;4.30;99.90
32698;DHT22;19087;51.062;3.754;2023-02-28T05:16:41;4.40;99.90
32698;DHT22;19087;51.062;3.754;2023-02-28T05:19:07;4.30;99.90
32698;DHT22;19087;51.062;3.754;2023-02-28T05:21:34;4.20;99.90
32698;DHT22;19087;51.062;3.754;2023-02-28T05:24:07;4.20;99.90
32698;DHT22;19087;51.062;3.754;2023-02-28T05:26:35;4.30;99.90
32698;DHT22;19087;51.062;3.754;2023-02-28T05:29:01;4.30;99.90
32698;DHT22;19087;51.062;3.754;2023-02-28T05:31:27;4.40;99.90
32698;DHT22;19087;51.062;3.754;2023-02-28T05:33:53;4.50;99.90
32698;DHT22;19087;51.062;3.754;2023-02-28T05:36:19;4.40;99.90
32698;DHT22;19087;51.062;3.754;2023-02-28T05:38:49;4.50;99.90
32698;DHT22;19087;51.062;3.754;2023-02-28T05:41:15;4.30;99.90
32698;DHT22;19087;51.062;3.754;2023-02-28T05:43:41;4.30;99.90
32698;DHT22;19087;51.062;3.754;2023-02-28T05:46:11;4.30;99.90
32698;DHT22;19087;51.062;3.754;2023-02-28T05:48:41;4.30;99.90
32698;DHT22;19087;51.062;3.754;2023-02-28T05:51:08;4.30;99.90
32698;DHT22;19087;51.062;3.754;2023-02-28T05:53:34;4.40;99.90
32698;DHT22;19087;51.062;3.754;2023-02-28T05:56:00;4.50;99.90
32698;DHT22;19087;51.062;3.754;2023-02-28T05:58:26;4.60;99.90
32698;DHT22;19087;51.062;3.754;2023-02-28T06:00:56;4.70;99.90
32698;DHT22;19087;51.062;3.754;2023-02-28T06:03:24;4.80;99.90
32698;DHT22;19087;51.062;3.754;2023-02-28T06:05:50;4.80;99.90
32698;DHT22;19087;51.062;3.754;2023-02-28T06:08:17;4.80;99.90
32698;DHT22;19087;51.062;3.754;2023-02-28T06:10:43;4.80;99.90
32698;DHT22;19087;51.062;3.754;2023-02-28T06:13:10;4.70;99.90
32698;DHT22;19087;51.062;3.754;2023-02-28T06:15:38;4.60;99.90
32698;DHT22;19087;51.062;3.754;2023-02-28T06:18:05;4.60;99.90
32698;DHT22;19087;51.062;3.754;2023-02-28T06:20:31;4.70;99.90
32698;DHT22;19087;51.062;3.754;2023-02-28T06:22:57;4.60;99.90
32698;DHT22;19087;51.062;3.754;2023-02-28T06:25:25;4.70;99.90
32698;DHT22;19087;51.062;3.754;2023-02-28T06:27:51;4.70;99.90
32698;DHT22;19087;51.062;3.754;2023-02-28T06:30:16;4.70;99.90
32698;DHT22;19087;51.062;3.754;2023-02-28T06:32:42;4.60;99.90
32698;DHT22;19087;51.062;3.754;2023-02-28T06:35:08;4.70;99.90
32698;DHT22;19087;51.062;3.754;2023-02-28T06:37:34;4.70;99.90
32698;DHT22;19087;51.062;3.754;2023-02-28T06:40:00;4.70;99.90
32698;DHT22;19087;51.062;3.754;2023-02-28T06:42:27;4.60;99.90
32698;DHT22;19087;51.062;3.754;2023-02-28T06:44:57;4.70;99.90
32698;DHT22;19087;51.062;3.754;2023-02-28T06:47:25;4.50;99.90
32698;DHT22;19087;51.062;3.754;2023-02-28T06:49:51;4.50;99.90
32698;DHT22;19087;51.062;3.754;2023-02-28T06:52:18;4.60;99.90
32698;DHT22;19087;51.062;3.754;2023-02-28T06:54:45;4.70;99.90
32698;DHT22;19087;51.062;3.754;2023-02-28T06:57:33;4.80;99.90
32698;DHT22;19087;51.062;3.754;2023-02-28T07:00:06;4.90;99.90
32698;DHT22;19087;51.062;3.754;2023-02-28T07:02:38;4.80;99.90
32698;DHT22;19087;51.062;3.754;2023-02-28T07:05:05;4.70;99.90
32698;DHT22;19087;51.062;3.754;2023-02-28T07:07:31;4.80;99.90
32698;DHT22;19087;51.062;3.754;2023-02-28T07:09:57;4.70;99.90
32698;DHT22;19087;51.062;3.754;2023-02-28T07:12:24;4.70;99.90
32698;DHT22;19087;51.062;3.754;2023-02-28T07:14:50;4.80;99.90
32698;DHT22;19087;51.062;3.754;2023-02-28T07:17:18;4.80;99.90
32698;DHT22;19087;51.062;3.754;2023-02-28T07:19:46;4.70;99.90
32698;DHT22;19087;51.062;3.754;2023-02-28T07:22:12;4.80;99.90
32698;DHT22;19087;51.062;3.754;2023-02-28T07:24:38;4.80;99.90
32698;DHT22;19087;51.062;3.754;2023-02-28T07:27:04;4.80;99.90
32698;DHT22;19087;51.062;3.754;2023-02-28T07:29:31;4.80;99.90
32698;DHT22;19087;51.062;3.754;2023-02-28T07:31:57;4.80;99.90
32698;DHT22;19087;51.062;3.754;2023-02-28T07:34:23;4.90;99.90
32698;DHT22;19087;51.062;3.754;2023-02-28T07:36:53;5.00;99.90
32698;DHT22;19087;51.062;3.754;2023-02-28T07:39:20;4.80;99.90
32698;DHT22;19087;51.062;3.754;2023-02-28T07:41:46;4.90;99.90
32698;DHT22;19087;51.062;3.754;2023-02-28T07:44:12;4.90;99.90
32698;DHT22;19087;51.062;3.754;2023-02-28T07:46:38;4.90;99.90
32698;DHT22;19087;51.062;3.754;2023-02-28T07:49:04;5.00;99.90
32698;DHT22;19087;51.062;3.754;2023-02-28T07:51:32;5.10;99.90
32698;DHT22;19087;51.062;3.754;2023-02-28T07:53:58;5.20;99.90
32698;DHT22;19087;51.062;3.754;2023-02-28T07:56:26;5.50;99.90
32698;DHT22;19087;51.062;3.754;2023-02-28T07:58:53;5.50;99.90
32698;DHT22;19087;51.062;3.754;2023-02-28T08:01:18;5.40;99.90
32698;DHT22;19087;51.062;3.754;2023-02-28T08:03:45;5.40;99.90
32698;DHT22;19087;51.062;3.754;2023-02-28T08:06:17;5.60;99.90
32698;DHT22;19087;51.062;3.754;2023-02-28T08:08:43;5.90;99.90
32698;DHT22;19087;51.062;3.754;2023-02-28T08:11:09;5.90;99.90
32698;DHT22;19087;51.062;3.754;2023-02-28T08:13:36;5.90;99.90
32698;DHT22;19087;51.062;3.754;2023-02-28T08:16:02;6.10;99.90
32698;DHT22;19087;51.062;3.754;2023-02-28T08:18:28;6.20;99.90
32698;DHT22;19087;51.062;3.754;2023-02-28T08:20:53;6.30;99.90
32698;DHT22;19087;51.062;3.754;2023-02-28T08:23:20;6.10;99.90
32698;DHT22;19087;51.062;3.754;2023-02-28T08:25:54;6.20;99.90
32698;DHT22;19087;51.062;3.754;2023-02-28T08:28:21;6.20;99.90
32698;DHT22;19087;51.062;3.754;2023-02-28T08:30:46;6.40;99.90
32698;DHT22;19087;51.062;3.754;2023-02-28T08:33:13;6.40;99.90
32698;DHT22;19087;51.062;3.754;2023-02-28T08:35:41;6.50;99.90
32698;DHT22;19087;51.062;3.754;2023-02-28T08:38:06;6.80;99.90
32698;DHT22;19087;51.062;3.754;2023-02-28T08:40:33;6.70;99.90
32698;DHT22;19087;51.062;3.754;2023-02-28T08:42:58;6.70;99.90
32698;DHT22;19087;51.062;3.754;2023-02-28T08:45:25;6.90;99.90
32698;DHT22;19087;51.062;3.754;2023-02-28T08:47:50;7.00;99.90
32698;DHT22;19087;51.062;3.754;2023-02-28T08:50:17;7.10;99.90
32698;DHT22;19087;51.062;3.754;2023-02-28T08:52:43;7.00;99.90
32698;DHT22;19087;51.062;3.754;2023-02-28T08:55:09;6.80;99.90
32698;DHT22;19087;51.062;3.754;2023-02-28T08:57:35;6.70;99.90
32698;DHT22;19087;51.062;3.754;2023-02-28T09:00:02;6.90;99.90
32698;DHT22;19087;51.062;3.754;2023-02-28T09:02:32;6.90;99.90
32698;DHT22;19087;51.062;3.754;2023-02-28T09:04:58;6.80;99.90
32698;DHT22;19087;51.062;3.754;2023-02-28T09:07:24;7.00;99.90
32698;DHT22;19087;51.062;3.754;2023-02-28T09:09:50;7.10;99.90
32698;DHT22;19087;51.062;3.754;2023-02-28T09:12:27;6.80;99.90
32698;DHT22;19087;51.062;3.754;2023-02-28T09:14:53;6.60;99.90
32698;DHT22;19087;51.062;3.754;2023-02-28T09:17:19;6.30;99.90
32698;DHT22;19087;51.062;3.754;2023-02-28T09:19:47;6.20;99.90
32698;DHT22;19087;51.062;3.754;2023-02-28T09:22:12;6.20;99.90
32698;DHT22;19087;51.062;3.754;2023-02-28T09:24:39;6.10;99.90
32698;DHT22;19087;51.062;3.754;2023-02-28T09:27:05;5.90;99.90
32698;DHT22;19087;51.062;3.754;2023-02-28T09:29:32;6.10;99.90
32698;DHT22;19087;51.062;3.754;2023-02-28T09:31:58;6.40;99.90
32698;DHT22;19087;51.062;3.754;2023-02-28T09:34:25;6.40;99.90
32698;DHT22;19087;51.062;3.754;2023-02-28T09:36:51;6.50;99.90
32698;DHT22;19087;51.062;3.754;2023-02-28T09:39:21;6.50;99.90
32698;DHT22;19087;51.062;3.754;2023-02-28T09:41:50;6.50;99.90
32698;DHT22;19087;51.062;3.754;2023-02-28T09:47:00;6.80;99.90
32698;DHT22;19087;51.062;3.754;2023-02-28T09:49:34;6.70;99.90
32698;DHT22;19087;51.062;3.754;2023-02-28T09:52:14;6.80;99.90
32698;DHT22;19087;51.062;3.754;2023-02-28T09:54:42;6.90;99.90
32698;DHT22;19087;51.062;3.754;2023-02-28T09:57:19;6.80;99.90
32698;DHT22;19087;51.062;3.754;2023-02-28T10:05:43;6.80;99.60
32698;DHT22;19087;51.062;3.754;2023-02-28T10:08:34;7.10;99.00
32698;DHT22;19087;51.062;3.754;2023-02-28T10:11:07;7.10;98.80
32698;DHT22;19087;51.062;3.754;2023-02-28T10:16:37;7.10;98.00
32698;DHT22;19087;51.062;3.754;2023-02-28T10:19:14;7.20;97.70
32698;DHT22;19087;51.062;3.754;2023-02-28T10:21:49;7.40;97.20
32698;DHT22;19087;51.062;3.754;2023-02-28T10:24:31;7.40;96.80
32698;DHT22;19087;51.062;3.754;2023-02-28T10:27:13;7.40;96.50
32698;DHT22;19087;51.062;3.754;2023-02-28T10:29:43;7.60;95.70
32698;DHT22;19087;51.062;3.754;2023-02-28T10:32:13;7.60;95.70
32698;DHT22;19087;51.062;3.754;2023-02-28T10:34:40;7.60;96.30
32698;DHT22;19087;51.062;3.754;2023-02-28T10:37:06;8.00;96.40
32698;DHT22;19087;51.062;3.754;2023-02-28T10:39:42;8.00;95.10
32698;DHT22;19087;51.062;3.754;2023-02-28T10:42:29;8.00;94.90
32698;DHT22;19087;51.062;3.754;2023-02-28T10:45:14;8.20;94.70
32698;DHT22;19087;51.062;3.754;2023-02-28T10:47:53;8.40;94.20
32698;DHT22;19087;51.062;3.754;2023-02-28T10:58:52;8.80;93.40
32698;DHT22;19087;51.062;3.754;2023-02-28T11:03:46;9.40;91.20
32698;DHT22;19087;51.062;3.754;2023-02-28T11:06:23;9.30;90.60
32698;DHT22;19087;51.062;3.754;2023-02-28T11:08:59;9.10;90.60
32698;DHT22;19087;51.062;3.754;2023-02-28T11:11:28;8.70;91.10
32698;DHT22;19087;51.062;3.754;2023-02-28T11:13:57;8.60;91.10
32698;DHT22;19087;51.062;3.754;2023-02-28T11:16:35;8.40;91.20
32698;DHT22;19087;51.062;3.754;2023-02-28T11:19:04;7.60;92.20
32698;DHT22;19087;51.062;3.754;2023-02-28T11:21:33;7.50;92.80
32698;DHT22;19087;51.062;3.754;2023-02-28T11:24:12;7.70;92.80
32698;DHT22;19087;51.062;3.754;2023-02-28T11:26:45;7.90;92.40
32698;DHT22;19087;51.062;3.754;2023-02-28T11:29:30;7.40;92.70
32698;DHT22;19087;51.062;3.754;2023-02-28T11:32:39;7.50;93.00
32698;DHT22;19087;51.062;3.754;2023-02-28T11:35:04;7.50;93.10
32698;DHT22;19087;51.062;3.754;2023-02-28T11:37:39;7.20;92.70
32698;DHT22;19087;51.062;3.754;2023-02-28T11:40:17;6.70;93.00
32698;DHT22;19087;51.062;3.754;2023-02-28T11:48:32;7.20;92.70
32698;DHT22;19087;51.062;3.754;2023-02-28T11:56:36;7.50;92.20
32698;DHT22;19087;51.062;3.754;2023-02-28T12:04:17;7.00;92.00
32698;DHT22;19087;51.062;3.754;2023-02-28T12:15:47;7.60;91.10
32698;DHT22;19087;51.062;3.754;2023-02-28T12:20:54;7.90;90.30
32698;DHT22;19087;51.062;3.754;2023-02-28T12:29:02;7.80;89.50
32698;DHT22;19087;51.062;3.754;2023-02-28T12:31:32;7.60;89.80
32698;DHT22;19087;51.062;3.754;2023-02-28T12:34:04;7.70;89.20
32698;DHT22;19087;51.062;3.754;2023-02-28T12:36:33;7.50;87.60
32698;DHT22;19087;51.062;3.754;2023-02-28T12:39:08;7.50;87.60
32698;DHT22;19087;51.062;3.754;2023-02-28T12:44:05;7.50;85.60
32698;DHT22;19087;51.062;3.754;2023-02-28T12:46:33;7.60;86.40
32698;DHT22;19087;51.062;3.754;2023-02-28T12:49:06;7.80;85.30
32698;DHT22;19087;51.062;3.754;2023-02-28T12:51:34;7.60;85.10
32698;DHT22;19087;51.062;3.754;2023-02-28T12:56:52;7.30;84.90
32698;DHT22;19087;51.062;3.754;2023-02-28T12:59:24;7.20;84.10
32698;DHT22;19087;51.062;3.754;2023-02-28T13:10:16;7.50;80.70
32698;DHT22;19087;51.062;3.754;2023-02-28T13:12:52;7.30;82.30
32698;DHT22;19087;51.062;3.754;2023-02-28T13:15:27;7.60;81.30
32698;DHT22;19087;51.062;3.754;2023-02-28T13:17:58;7.90;80.50
32698;DHT22;19087;51.062;3.754;2023-02-28T13:20:31;8.00;81.20
32698;DHT22;19087;51.062;3.754;2023-02-28T13:22:58;8.00;80.60
32698;DHT22;19087;51.062;3.754;2023-02-28T13:28:12;8.10;78.90
32698;DHT22;19087;51.062;3.754;2023-02-28T13:49:27;7.70;78.70
32698;DHT22;19087;51.062;3.754;2023-02-28T14:02:41;8.10;77.30
32698;DHT22;19087;51.062;3.754;2023-02-28T14:05:19;7.60;78.10
32698;DHT22;19087;51.062;3.754;2023-02-28T14:07:57;7.20;79.50
32698;DHT22;19087;51.062;3.754;2023-02-28T14:10:30;7.10;80.10
32698;DHT22;19087;51.062;3.754;2023-02-28T14:13:13;7.30;80.20
32698;DHT22;19087;51.062;3.754;2023-02-28T14:15:45;7.50;79.60
32698;DHT22;19087;51.062;3.754;2023-02-28T14:18:32;7.30;79.50
32698;DHT22;19087;51.062;3.754;2023-02-28T14:21:21;7.40;80.00
32698;DHT22;19087;51.062;3.754;2023-02-28T14:38:29;7.50;79.90
32698;DHT22;19087;51.062;3.754;2023-02-28T14:41:38;7.50;80.00
32698;DHT22;19087;51.062;3.754;2023-02-28T14:44:23;7.80;80.20
32698;DHT22;19087;51.062;3.754;2023-02-28T14:47:00;7.70;80.50
32698;DHT22;19087;51.062;3.754;2023-02-28T14:49:35;7.50;80.20
32698;DHT22;19087;51.062;3.754;2023-02-28T14:52:06;7.40;80.10
32698;DHT22;19087;51.062;3.754;2023-02-28T14:54:38;7.30;80.40
32698;DHT22;19087;51.062;3.754;2023-02-28T14:57:05;7.40;80.50
32698;DHT22;19087;51.062;3.754;2023-02-28T14:59:35;7.50;80.20
32698;DHT22;19087;51.062;3.754;2023-02-28T15:02:22;7.70;79.80
32698;DHT22;19087;51.062;3.754;2023-02-28T15:05:25;7.40;80.10
32698;DHT22;19087;51.062;3.754;2023-02-28T15:08:04;7.20;80.20
32698;DHT22;19087;51.062;3.754;2023-02-28T15:10:30;7.00;81.40
32698;DHT22;19087;51.062;3.754;2023-02-28T15:12:59;7.10;82.00
32698;DHT22;19087;51.062;3.754;2023-02-28T15:18:06;7.50;81.00
32698;DHT22;19087;51.062;3.754;2023-02-28T15:20:33;7.60;80.70
32698;DHT22;19087;51.062;3.754;2023-02-28T15:23:01;7.70;81.20
32698;DHT22;19087;51.062;3.754;2023-02-28T15:25:27;7.30;81.00
32698;DHT22;19087;51.062;3.754;2023-02-28T15:27:54;7.10;81.70
32698;DHT22;19087;51.062;3.754;2023-02-28T15:30:29;7.10;82.30
32698;DHT22;19087;51.062;3.754;2023-02-28T15:35:34;7.20;82.80
32698;DHT22;19087;51.062;3.754;2023-02-28T15:38:01;7.30;82.40
32698;DHT22;19087;51.062;3.754;2023-02-28T15:40:30;7.50;82.20
32698;DHT22;19087;51.062;3.754;2023-02-28T15:45:44;7.40;82.50
32698;DHT22;19087;51.062;3.754;2023-02-28T15:48:38;7.30;82.90
32698;DHT22;19087;51.062;3.754;2023-02-28T15:53:46;7.20;83.70
32698;DHT22;19087;51.062;3.754;2023-02-28T15:56:26;7.10;83.40
32698;DHT22;19087;51.062;3.754;2023-02-28T15:59:04;6.90;84.60
32698;DHT22;19087;51.062;3.754;2023-02-28T16:01:37;7.00;83.90
32698;DHT22;19087;51.062;3.754;2023-02-28T16:04:14;7.10;83.60
32698;DHT22;19087;51.062;3.754;2023-02-28T16:07:02;7.20;83.70
32698;DHT22;19087;51.062;3.754;2023-02-28T16:09:29;7.00;84.40
32698;DHT22;19087;51.062;3.754;2023-02-28T16:11:59;6.90;84.20
32698;DHT22;19087;51.062;3.754;2023-02-28T16:14:28;6.90;84.40
32698;DHT22;19087;51.062;3.754;2023-02-28T16:17:07;7.10;84.20
32698;DHT22;19087;51.062;3.754;2023-02-28T16:19:36;6.80;84.70
32698;DHT22;19087;51.062;3.754;2023-02-28T16:22:02;6.60;85.60
32698;DHT22;19087;51.062;3.754;2023-02-28T16:24:28;6.70;85.90
32698;DHT22;19087;51.062;3.754;2023-02-28T16:26:54;6.50;86.40
32698;DHT22;19087;51.062;3.754;2023-02-28T16:29:29;6.30;86.60
32698;DHT22;19087;51.062;3.754;2023-02-28T16:31:56;6.40;87.70
32698;DHT22;19087;51.062;3.754;2023-02-28T16:34:24;6.20;87.40
32698;DHT22;19087;51.062;3.754;2023-02-28T16:36:50;6.20;87.60
32698;DHT22;19087;51.062;3.754;2023-02-28T16:39:16;6.20;87.80
32698;DHT22;19087;51.062;3.754;2023-02-28T16:41:43;6.10;88.00
32698;DHT22;19087;51.062;3.754;2023-02-28T16:44:35;6.30;88.00
32698;DHT22;19087;51.062;3.754;2023-02-28T16:47:02;6.10;87.90
32698;DHT22;19087;51.062;3.754;2023-02-28T16:49:27;6.30;87.70
32698;DHT22;19087;51.062;3.754;2023-02-28T16:51:53;6.30;87.60
32698;DHT22;19087;51.062;3.754;2023-02-28T16:54:19;6.30;87.60
32698;DHT22;19087;51.062;3.754;2023-02-28T16:56:46;6.10;87.90
32698;DHT22;19087;51.062;3.754;2023-02-28T16:59:12;6.30;88.10
32698;DHT22;19087;51.062;3.754;2023-02-28T17:01:39;6.10;88.20
32698;DHT22;19087;51.062;3.754;2023-02-28T17:04:05;6.10;89.00
32698;DHT22;19087;51.062;3.754;2023-02-28T17:06:31;6.40;88.50
32698;DHT22;19087;51.062;3.754;2023-02-28T17:08:58;6.50;89.50
32698;DHT22;19087;51.062;3.754;2023-02-28T17:11:25;6.50;88.30
32698;DHT22;19087;51.062;3.754;2023-02-28T17:13:51;6.40;88.80
32698;DHT22;19087;51.062;3.754;2023-02-28T17:16:33;6.20;88.80
32698;DHT22;19087;51.062;3.754;2023-02-28T17:19:04;6.00;89.30
32698;DHT22;19087;51.062;3.754;2023-02-28T17:21:33;6.20;89.70
32698;DHT22;19087;51.062;3.754;2023-02-28T17:24:01;6.20;89.90
32698;DHT22;19087;51.062;3.754;2023-02-28T17:26:26;6.10;90.00
32698;DHT22;19087;51.062;3.754;2023-02-28T17:28:55;6.10;90.10
32698;DHT22;19087;51.062;3.754;2023-02-28T17:31:26;6.00;90.10
32698;DHT22;19087;51.062;3.754;2023-02-28T17:33:53;6.00;90.20
32698;DHT22;19087;51.062;3.754;2023-02-28T17:36:24;5.90;90.30
32698;DHT22;19087;51.062;3.754;2023-02-28T17:38:53;5.90;90.40
32698;DHT22;19087;51.062;3.754;2023-02-28T17:41:20;5.90;90.40
32698;DHT22;19087;51.062;3.754;2023-02-28T17:43:47;6.00;90.30
32698;DHT22;19087;51.062;3.754;2023-02-28T17:46:22;6.00;90.60
32698;DHT22;19087;51.062;3.754;2023-02-28T17:48:52;5.80;90.60
32698;DHT22;19087;51.062;3.754;2023-02-28T17:51:21;5.70;90.90
32698;DHT22;19087;51.062;3.754;2023-02-28T17:53:47;5.60;90.90
32698;DHT22;19087;51.062;3.754;2023-02-28T17:56:16;5.60;91.10
32698;DHT22;19087;51.062;3.754;2023-02-28T17:58:43;5.50;91.30
32698;DHT22;19087;51.062;3.754;2023-02-28T18:01:08;5.60;91.60
32698;DHT22;19087;51.062;3.754;2023-02-28T18:03:35;5.70;91.40
32698;DHT22;19087;51.062;3.754;2023-02-28T18:06:02;5.80;91.30
32698;DHT22;19087;51.062;3.754;2023-02-28T18:08:28;5.80;91.30
32698;DHT22;19087;51.062;3.754;2023-02-28T18:10:54;5.70;91.30
32698;DHT22;19087;51.062;3.754;2023-02-28T18:13:19;5.60;91.60
32698;DHT22;19087;51.062;3.754;2023-02-28T18:15:45;5.70;91.60
32698;DHT22;19087;51.062;3.754;2023-02-28T18:18:13;5.60;91.70
32698;DHT22;19087;51.062;3.754;2023-02-28T18:20:41;5.50;91.70
32698;DHT22;19087;51.062;3.754;2023-02-28T18:23:06;5.60;91.90
32698;DHT22;19087;51.062;3.754;2023-02-28T18:25:32;5.40;92.10
32698;DHT22;19087;51.062;3.754;2023-02-28T18:27:58;5.30;92.30
32698;DHT22;19087;51.062;3.754;2023-02-28T18:30:36;5.10;92.50
32698;DHT22;19087;51.062;3.754;2023-02-28T18:33:03;5.00;92.80